sensor_id;sensor_type;location;lat;lon;timestamp;P1;durP1;ratioP1;P2;durP2;ratioP2
39656;SDS011;25337;51.478;7.510;2023-12-20T00:27:05;46.63;;;17.00;;
39656;SDS011;25337;51.478;7.510;2023-12-20T00:29:33;47.40;;;16.25;;
39656;SDS011;25337;51.478;7.510;2023-12-20T00:31:58;47.30;;;16.42;;
39656;SDS011;25337;51.478;7.510;2023-12-20T00:34:24;49.45;;;17.65;;
39656;SDS011;25337;51.478;7.510;2023-12-20T00:36:49;45.40;;;16.00;;
39656;SDS011;25337;51.478;7.510;2023-12-20T00:39:15;41.70;;;16.33;;
39656;SDS011;25337;51.478;7.510;2023-12-20T00:41:41;41.55;;;16.08;;
39656;SDS011;25337;51.478;7.510;2023-12-20T00:44:06;42.88;;;15.48;;
39656;SDS011;25337;51.478;7.510;2023-12-20T00:46:32;35.92;;;13.90;;
39656;SDS011;25337;51.478;7.510;2023-12-20T00:48:57;47.13;;;16.08;;
39656;SDS011;25337;51.478;7.510;2023-12-20T00:51:23;39.22;;;14.60;;
39656;SDS011;25337;51.478;7.510;2023-12-20T00:53:49;26.85;;;11.25;;
39656;SDS011;25337;51.478;7.510;2023-12-20T00:56:15;28.63;;;10.27;;
39656;SDS011;25337;51.478;7.510;2023-12-20T00:58:43;29.17;;;11.63;;
39656;SDS011;25337;51.478;7.510;2023-12-20T01:01:08;27.92;;;12.73;;
39656;SDS011;25337;51.478;7.510;2023-12-20T01:03:34;21.90;;;8.43;;
39656;SDS011;25337;51.478;7.510;2023-12-20T01:05:59;21.38;;;9.05;;
39656;SDS011;25337;51.478;7.510;2023-12-20T01:08:27;17.60;;;7.13;;
39656;SDS011;25337;51.478;7.510;2023-12-20T01:10:53;18.48;;;6.32;;
39656;SDS011;25337;51.478;7.510;2023-12-20T01:13:19;17.65;;;6.00;;
39656;SDS011;25337;51.478;7.510;2023-12-20T01:15:44;16.85;;;5.63;;
39656;SDS011;25337;51.478;7.510;2023-12-20T01:18:10;19.00;;;7.15;;
39656;SDS011;25337;51.478;7.510;2023-12-20T01:20:35;22.23;;;6.57;;
39656;SDS011;25337;51.478;7.510;2023-12-20T01:23:01;11.50;;;4.20;;
39656;SDS011;25337;51.478;7.510;2023-12-20T01:25:26;14.20;;;5.40;;
39656;SDS011;25337;51.478;7.510;2023-12-20T01:27:52;22.40;;;5.30;;
39656;SDS011;25337;51.478;7.510;2023-12-20T01:30:18;18.48;;;4.80;;
39656;SDS011;25337;51.478;7.510;2023-12-20T01:32:45;13.45;;;5.25;;
39656;SDS011;25337;51.478;7.510;2023-12-20T01:35:11;16.05;;;5.63;;
39656;SDS011;25337;51.478;7.510;2023-12-20T01:37:37;14.00;;;4.32;;
39656;SDS011;25337;51.478;7.510;2023-12-20T01:40:03;19.92;;;6.53;;
39656;SDS011;25337;51.478;7.510;2023-12-20T01:42:29;15.63;;;4.00;;
39656;SDS011;25337;51.478;7.510;2023-12-20T01:44:57;12.98;;;4.97;;
39656;SDS011;25337;51.478;7.510;2023-12-20T01:47:23;13.60;;;4.10;;
39656;SDS011;25337;51.478;7.510;2023-12-20T01:49:49;15.70;;;4.40;;
39656;SDS011;25337;51.478;7.510;2023-12-20T01:52:15;16.02;;;5.72;;
39656;SDS011;25337;51.478;7.510;2023-12-20T01:54:41;25.20;;;6.45;;
39656;SDS011;25337;51.478;7.510;2023-12-20T01:57:08;11.88;;;4.82;;
39656;SDS011;25337;51.478;7.510;2023-12-20T01:59:34;12.85;;;5.15;;
39656;SDS011;25337;51.478;7.510;2023-12-20T02:02:00;13.13;;;5.15;;
39656;SDS011;25337;51.478;7.510;2023-12-20T02:04:28;13.60;;;4.00;;
39656;SDS011;25337;51.478;7.510;2023-12-20T02:06:54;14.20;;;5.68;;
39656;SDS011;25337;51.478;7.510;2023-12-20T02:09:21;21.00;;;6.00;;
39656;SDS011;25337;51.478;7.510;2023-12-20T02:11:49;19.30;;;6.30;;
39656;SDS011;25337;51.478;7.510;2023-12-20T02:14:15;17.88;;;5.68;;
39656;SDS011;25337;51.478;7.510;2023-12-20T02:16:41;22.23;;;6.03;;
39656;SDS011;25337;51.478;7.510;2023-12-20T02:19:09;14.45;;;5.97;;
39656;SDS011;25337;51.478;7.510;2023-12-20T02:21:39;20.45;;;7.28;;
39656;SDS011;25337;51.478;7.510;2023-12-20T02:24:05;19.38;;;4.90;;
39656;SDS011;25337;51.478;7.510;2023-12-20T02:26:31;18.52;;;5.65;;
39656;SDS011;25337;51.478;7.510;2023-12-20T02:28:58;14.18;;;5.65;;
39656;SDS011;25337;51.478;7.510;2023-12-20T02:31:24;22.42;;;5.57;;
39656;SDS011;25337;51.478;7.510;2023-12-20T02:33:49;15.00;;;5.13;;
39656;SDS011;25337;51.478;7.510;2023-12-20T02:36:15;15.07;;;5.53;;
39656;SDS011;25337;51.478;7.510;2023-12-20T02:38:41;18.60;;;5.65;;
39656;SDS011;25337;51.478;7.510;2023-12-20T02:41:06;15.00;;;5.47;;
39656;SDS011;25337;51.478;7.510;2023-12-20T02:43:32;19.33;;;5.38;;
39656;SDS011;25337;51.478;7.510;2023-12-20T02:45:58;15.63;;;5.15;;
39656;SDS011;25337;51.478;7.510;2023-12-20T02:48:23;19.73;;;5.43;;
39656;SDS011;25337;51.478;7.510;2023-12-20T02:50:49;13.38;;;3.85;;
39656;SDS011;25337;51.478;7.510;2023-12-20T02:53:14;16.05;;;4.80;;
39656;SDS011;25337;51.478;7.510;2023-12-20T02:55:40;15.05;;;4.57;;
39656;SDS011;25337;51.478;7.510;2023-12-20T02:58:05;17.58;;;4.75;;
39656;SDS011;25337;51.478;7.510;2023-12-20T03:00:31;10.50;;;3.75;;
39656;SDS011;25337;51.478;7.510;2023-12-20T03:02:57;15.27;;;3.70;;
39656;SDS011;25337;51.478;7.510;2023-12-20T03:05:24;16.80;;;5.45;;
39656;SDS011;25337;51.478;7.510;2023-12-20T03:07:50;15.30;;;5.20;;
39656;SDS011;25337;51.478;7.510;2023-12-20T03:10:15;25.02;;;7.22;;
39656;SDS011;25337;51.478;7.510;2023-12-20T03:12:41;12.27;;;5.07;;
39656;SDS011;25337;51.478;7.510;2023-12-20T03:15:07;14.35;;;5.32;;
39656;SDS011;25337;51.478;7.510;2023-12-20T03:17:32;23.48;;;7.03;;
39656;SDS011;25337;51.478;7.510;2023-12-20T03:19:58;14.68;;;6.15;;
39656;SDS011;25337;51.478;7.510;2023-12-20T03:22:24;17.40;;;5.88;;
39656;SDS011;25337;51.478;7.510;2023-12-20T03:24:49;15.48;;;6.07;;
39656;SDS011;25337;51.478;7.510;2023-12-20T03:27:15;28.48;;;8.93;;
39656;SDS011;25337;51.478;7.510;2023-12-20T03:29:40;18.83;;;7.20;;
39656;SDS011;25337;51.478;7.510;2023-12-20T03:32:06;22.60;;;6.28;;
39656;SDS011;25337;51.478;7.510;2023-12-20T03:34:33;18.95;;;6.57;;
39656;SDS011;25337;51.478;7.510;2023-12-20T03:36:59;22.25;;;7.72;;
39656;SDS011;25337;51.478;7.510;2023-12-20T03:39:24;15.05;;;5.68;;
39656;SDS011;25337;51.478;7.510;2023-12-20T03:41:50;18.85;;;6.10;;
39656;SDS011;25337;51.478;7.510;2023-12-20T03:44:15;21.90;;;6.28;;
39656;SDS011;25337;51.478;7.510;2023-12-20T03:46:41;22.92;;;7.90;;
39656;SDS011;25337;51.478;7.510;2023-12-20T03:49:06;19.73;;;5.72;;
39656;SDS011;25337;51.478;7.510;2023-12-20T03:51:32;27.85;;;8.23;;
39656;SDS011;25337;51.478;7.510;2023-12-20T03:53:58;23.42;;;6.65;;
39656;SDS011;25337;51.478;7.510;2023-12-20T03:56:23;19.15;;;6.47;;
39656;SDS011;25337;51.478;7.510;2023-12-20T03:58:49;15.55;;;5.57;;
39656;SDS011;25337;51.478;7.510;2023-12-20T04:01:14;17.15;;;6.57;;
39656;SDS011;25337;51.478;7.510;2023-12-20T04:03:40;18.27;;;8.30;;
39656;SDS011;25337;51.478;7.510;2023-12-20T04:06:08;22.52;;;7.97;;
39656;SDS011;25337;51.478;7.510;2023-12-20T04:08:35;21.70;;;9.55;;
39656;SDS011;25337;51.478;7.510;2023-12-20T04:11:01;14.80;;;5.90;;
39656;SDS011;25337;51.478;7.510;2023-12-20T04:13:27;27.98;;;7.57;;
39656;SDS011;25337;51.478;7.510;2023-12-20T04:15:52;22.08;;;7.40;;
39656;SDS011;25337;51.478;7.510;2023-12-20T04:18:18;23.20;;;7.55;;
39656;SDS011;25337;51.478;7.510;2023-12-20T04:20:46;20.50;;;7.18;;
39656;SDS011;25337;51.478;7.510;2023-12-20T04:23:14;25.80;;;7.07;;
39656;SDS011;25337;51.478;7.510;2023-12-20T04:28:07;13.35;;;4.82;;
39656;SDS011;25337;51.478;7.510;2023-12-20T04:30:33;18.52;;;5.78;;
39656;SDS011;25337;51.478;7.510;2023-12-20T04:32:58;17.30;;;5.05;;
39656;SDS011;25337;51.478;7.510;2023-12-20T04:35:24;19.30;;;6.03;;
39656;SDS011;25337;51.478;7.510;2023-12-20T04:37:49;20.27;;;6.35;;
39656;SDS011;25337;51.478;7.510;2023-12-20T04:40:15;10.55;;;4.47;;
39656;SDS011;25337;51.478;7.510;2023-12-20T04:42:41;22.38;;;7.28;;
39656;SDS011;25337;51.478;7.510;2023-12-20T04:45:06;21.63;;;7.28;;
39656;SDS011;25337;51.478;7.510;2023-12-20T04:47:32;28.42;;;8.85;;
39656;SDS011;25337;51.478;7.510;2023-12-20T04:49:58;21.92;;;7.97;;
39656;SDS011;25337;51.478;7.510;2023-12-20T04:52:24;19.55;;;5.65;;
39656;SDS011;25337;51.478;7.510;2023-12-20T04:54:50;25.27;;;8.75;;
39656;SDS011;25337;51.478;7.510;2023-12-20T04:57:16;27.55;;;7.75;;
39656;SDS011;25337;51.478;7.510;2023-12-20T04:59:42;22.90;;;8.10;;
39656;SDS011;25337;51.478;7.510;2023-12-20T05:02:07;22.65;;;7.22;;
39656;SDS011;25337;51.478;7.510;2023-12-20T05:04:35;18.50;;;6.30;;
39656;SDS011;25337;51.478;7.510;2023-12-20T05:07:00;24.75;;;9.82;;
39656;SDS011;25337;51.478;7.510;2023-12-20T05:09:26;18.33;;;6.85;;
39656;SDS011;25337;51.478;7.510;2023-12-20T05:11:52;24.63;;;8.65;;
39656;SDS011;25337;51.478;7.510;2023-12-20T05:14:17;22.95;;;9.15;;
39656;SDS011;25337;51.478;7.510;2023-12-20T05:16:43;30.80;;;9.50;;
39656;SDS011;25337;51.478;7.510;2023-12-20T05:19:08;24.65;;;7.28;;
39656;SDS011;25337;51.478;7.510;2023-12-20T05:21:34;21.42;;;7.20;;
39656;SDS011;25337;51.478;7.510;2023-12-20T05:24:00;16.08;;;6.75;;
39656;SDS011;25337;51.478;7.510;2023-12-20T05:26:29;24.95;;;7.85;;
39656;SDS011;25337;51.478;7.510;2023-12-20T05:28:55;23.55;;;7.60;;
39656;SDS011;25337;51.478;7.510;2023-12-20T05:31:21;18.40;;;7.35;;
39656;SDS011;25337;51.478;7.510;2023-12-20T05:33:48;41.60;;;6.03;;
39656;SDS011;25337;51.478;7.510;2023-12-20T05:36:15;24.13;;;8.73;;
39656;SDS011;25337;51.478;7.510;2023-12-20T05:38:40;19.73;;;6.47;;
39656;SDS011;25337;51.478;7.510;2023-12-20T05:41:06;26.65;;;8.88;;
39656;SDS011;25337;51.478;7.510;2023-12-20T05:43:31;20.88;;;8.20;;
39656;SDS011;25337;51.478;7.510;2023-12-20T05:46:00;25.52;;;7.07;;
39656;SDS011;25337;51.478;7.510;2023-12-20T05:48:28;18.55;;;6.07;;
39656;SDS011;25337;51.478;7.510;2023-12-20T05:50:56;25.75;;;8.40;;
39656;SDS011;25337;51.478;7.510;2023-12-20T05:53:22;29.95;;;8.00;;
39656;SDS011;25337;51.478;7.510;2023-12-20T05:55:48;22.95;;;8.40;;
39656;SDS011;25337;51.478;7.510;2023-12-20T05:58:13;19.15;;;6.00;;
39656;SDS011;25337;51.478;7.510;2023-12-20T06:00:39;25.17;;;8.40;;
39656;SDS011;25337;51.478;7.510;2023-12-20T06:03:04;26.75;;;6.85;;
39656;SDS011;25337;51.478;7.510;2023-12-20T06:05:30;24.83;;;9.05;;
39656;SDS011;25337;51.478;7.510;2023-12-20T06:07:58;21.85;;;6.80;;
39656;SDS011;25337;51.478;7.510;2023-12-20T06:10:27;21.58;;;7.32;;
39656;SDS011;25337;51.478;7.510;2023-12-20T06:12:59;21.45;;;6.85;;
39656;SDS011;25337;51.478;7.510;2023-12-20T06:15:25;31.77;;;9.95;;
39656;SDS011;25337;51.478;7.510;2023-12-20T06:17:51;21.58;;;7.38;;
39656;SDS011;25337;51.478;7.510;2023-12-20T06:20:17;23.08;;;8.75;;
39656;SDS011;25337;51.478;7.510;2023-12-20T06:22:42;25.40;;;7.53;;
39656;SDS011;25337;51.478;7.510;2023-12-20T06:25:10;29.25;;;9.80;;
39656;SDS011;25337;51.478;7.510;2023-12-20T06:27:36;27.17;;;7.90;;
39656;SDS011;25337;51.478;7.510;2023-12-20T06:30:01;21.08;;;7.47;;
39656;SDS011;25337;51.478;7.510;2023-12-20T06:32:27;32.58;;;10.43;;
39656;SDS011;25337;51.478;7.510;2023-12-20T06:34:54;24.73;;;8.77;;
39656;SDS011;25337;51.478;7.510;2023-12-20T06:37:19;33.38;;;8.57;;
39656;SDS011;25337;51.478;7.510;2023-12-20T06:39:45;30.98;;;9.93;;
39656;SDS011;25337;51.478;7.510;2023-12-20T06:42:11;23.92;;;7.18;;
39656;SDS011;25337;51.478;7.510;2023-12-20T06:44:37;34.30;;;9.00;;
39656;SDS011;25337;51.478;7.510;2023-12-20T06:47:04;22.17;;;8.43;;
39656;SDS011;25337;51.478;7.510;2023-12-20T06:49:29;26.58;;;9.90;;
39656;SDS011;25337;51.478;7.510;2023-12-20T06:51:55;24.10;;;9.18;;
39656;SDS011;25337;51.478;7.510;2023-12-20T06:54:20;37.13;;;10.52;;
39656;SDS011;25337;51.478;7.510;2023-12-20T06:56:46;24.90;;;8.40;;
39656;SDS011;25337;51.478;7.510;2023-12-20T06:59:12;25.63;;;9.95;;
39656;SDS011;25337;51.478;7.510;2023-12-20T07:01:37;21.73;;;9.75;;
39656;SDS011;25337;51.478;7.510;2023-12-20T07:04:03;20.85;;;7.28;;
39656;SDS011;25337;51.478;7.510;2023-12-20T07:06:28;27.15;;;6.60;;
39656;SDS011;25337;51.478;7.510;2023-12-20T07:08:54;25.90;;;9.55;;
39656;SDS011;25337;51.478;7.510;2023-12-20T07:11:22;27.58;;;9.18;;
39656;SDS011;25337;51.478;7.510;2023-12-20T07:13:48;28.33;;;9.40;;
39656;SDS011;25337;51.478;7.510;2023-12-20T07:16:14;31.75;;;9.32;;
39656;SDS011;25337;51.478;7.510;2023-12-20T07:18:40;21.27;;;7.53;;
39656;SDS011;25337;51.478;7.510;2023-12-20T07:21:05;23.02;;;7.45;;
39656;SDS011;25337;51.478;7.510;2023-12-20T07:23:33;30.00;;;9.43;;
39656;SDS011;25337;51.478;7.510;2023-12-20T07:25:58;23.10;;;8.70;;
39656;SDS011;25337;51.478;7.510;2023-12-20T07:28:26;29.65;;;7.97;;
39656;SDS011;25337;51.478;7.510;2023-12-20T07:30:52;19.50;;;6.95;;
39656;SDS011;25337;51.478;7.510;2023-12-20T07:33:17;19.42;;;6.65;;
39656;SDS011;25337;51.478;7.510;2023-12-20T07:35:43;24.10;;;7.50;;
39656;SDS011;25337;51.478;7.510;2023-12-20T07:38:10;15.48;;;5.10;;
39656;SDS011;25337;51.478;7.510;2023-12-20T07:40:37;23.33;;;7.10;;
39656;SDS011;25337;51.478;7.510;2023-12-20T07:43:03;25.05;;;6.88;;
39656;SDS011;25337;51.478;7.510;2023-12-20T07:45:28;27.80;;;8.57;;
39656;SDS011;25337;51.478;7.510;2023-12-20T07:47:54;17.33;;;6.25;;
39656;SDS011;25337;51.478;7.510;2023-12-20T07:50:19;20.75;;;6.50;;
39656;SDS011;25337;51.478;7.510;2023-12-20T07:52:47;28.45;;;8.20;;
39656;SDS011;25337;51.478;7.510;2023-12-20T07:55:13;16.35;;;5.25;;
39656;SDS011;25337;51.478;7.510;2023-12-20T07:57:39;24.08;;;7.07;;
39656;SDS011;25337;51.478;7.510;2023-12-20T08:00:06;26.45;;;6.78;;
39656;SDS011;25337;51.478;7.510;2023-12-20T08:02:32;20.15;;;7.28;;
39656;SDS011;25337;51.478;7.510;2023-12-20T08:04:58;21.63;;;8.20;;
39656;SDS011;25337;51.478;7.510;2023-12-20T08:07:23;19.17;;;4.85;;
39656;SDS011;25337;51.478;7.510;2023-12-20T08:09:49;17.60;;;5.57;;
39656;SDS011;25337;51.478;7.510;2023-12-20T08:12:17;19.85;;;6.43;;
39656;SDS011;25337;51.478;7.510;2023-12-20T08:14:42;23.27;;;6.85;;
39656;SDS011;25337;51.478;7.510;2023-12-20T08:17:08;18.10;;;6.60;;
39656;SDS011;25337;51.478;7.510;2023-12-20T08:19:33;19.55;;;5.88;;
39656;SDS011;25337;51.478;7.510;2023-12-20T08:21:59;23.73;;;5.65;;
39656;SDS011;25337;51.478;7.510;2023-12-20T08:24:27;11.52;;;4.25;;
39656;SDS011;25337;51.478;7.510;2023-12-20T08:26:52;29.70;;;7.75;;
39656;SDS011;25337;51.478;7.510;2023-12-20T08:29:20;21.38;;;6.65;;
39656;SDS011;25337;51.478;7.510;2023-12-20T08:31:46;20.90;;;7.10;;
39656;SDS011;25337;51.478;7.510;2023-12-20T08:34:11;18.42;;;7.20;;
39656;SDS011;25337;51.478;7.510;2023-12-20T08:36:39;17.30;;;7.85;;
39656;SDS011;25337;51.478;7.510;2023-12-20T08:39:04;24.33;;;7.13;;
39656;SDS011;25337;51.478;7.510;2023-12-20T08:41:32;15.18;;;5.60;;
39656;SDS011;25337;51.478;7.510;2023-12-20T08:44:00;19.85;;;7.53;;
39656;SDS011;25337;51.478;7.510;2023-12-20T08:46:25;19.25;;;7.55;;
39656;SDS011;25337;51.478;7.510;2023-12-20T08:48:51;14.70;;;5.45;;
39656;SDS011;25337;51.478;7.510;2023-12-20T08:51:16;20.33;;;5.90;;
39656;SDS011;25337;51.478;7.510;2023-12-20T08:53:42;25.52;;;7.60;;
39656;SDS011;25337;51.478;7.510;2023-12-20T08:56:10;20.35;;;6.20;;
39656;SDS011;25337;51.478;7.510;2023-12-20T08:58:35;22.35;;;6.65;;
39656;SDS011;25337;51.478;7.510;2023-12-20T09:01:01;22.25;;;6.38;;
39656;SDS011;25337;51.478;7.510;2023-12-20T09:03:26;20.65;;;5.93;;
39656;SDS011;25337;51.478;7.510;2023-12-20T09:05:54;20.67;;;6.10;;
39656;SDS011;25337;51.478;7.510;2023-12-20T09:08:22;17.48;;;5.57;;
39656;SDS011;25337;51.478;7.510;2023-12-20T09:10:48;21.20;;;6.38;;
39656;SDS011;25337;51.478;7.510;2023-12-20T09:13:14;17.27;;;6.20;;
39656;SDS011;25337;51.478;7.510;2023-12-20T09:15:39;28.00;;;8.23;;
39656;SDS011;25337;51.478;7.510;2023-12-20T09:18:05;14.55;;;6.65;;
39656;SDS011;25337;51.478;7.510;2023-12-20T09:20:31;23.63;;;9.05;;
39656;SDS011;25337;51.478;7.510;2023-12-20T09:22:57;15.75;;;5.50;;
39656;SDS011;25337;51.478;7.510;2023-12-20T09:25:23;23.90;;;7.25;;
39656;SDS011;25337;51.478;7.510;2023-12-20T09:27:50;18.83;;;7.15;;
39656;SDS011;25337;51.478;7.510;2023-12-20T09:30:17;29.50;;;8.68;;
39656;SDS011;25337;51.478;7.510;2023-12-20T09:32:43;14.95;;;4.93;;
39656;SDS011;25337;51.478;7.510;2023-12-20T09:35:12;18.65;;;6.30;;
39656;SDS011;25337;51.478;7.510;2023-12-20T09:37:37;15.43;;;5.00;;
39656;SDS011;25337;51.478;7.510;2023-12-20T09:40:06;24.10;;;8.88;;
39656;SDS011;25337;51.478;7.510;2023-12-20T09:42:38;19.25;;;5.43;;
39656;SDS011;25337;51.478;7.510;2023-12-20T09:45:13;24.35;;;6.57;;
39656;SDS011;25337;51.478;7.510;2023-12-20T09:47:40;15.68;;;6.22;;
39656;SDS011;25337;51.478;7.510;2023-12-20T09:50:07;19.38;;;6.53;;
39656;SDS011;25337;51.478;7.510;2023-12-20T09:52:33;20.40;;;6.20;;
39656;SDS011;25337;51.478;7.510;2023-12-20T09:55:01;27.10;;;6.85;;
39656;SDS011;25337;51.478;7.510;2023-12-20T09:57:30;20.85;;;5.45;;
39656;SDS011;25337;51.478;7.510;2023-12-20T09:59:57;15.45;;;6.32;;
39656;SDS011;25337;51.478;7.510;2023-12-20T10:02:25;24.83;;;6.20;;
39656;SDS011;25337;51.478;7.510;2023-12-20T10:04:52;20.15;;;5.68;;
39656;SDS011;25337;51.478;7.510;2023-12-20T10:07:19;13.02;;;4.90;;
39656;SDS011;25337;51.478;7.510;2023-12-20T10:09:46;17.17;;;6.20;;
39656;SDS011;25337;51.478;7.510;2023-12-20T10:12:19;18.00;;;5.80;;
39656;SDS011;25337;51.478;7.510;2023-12-20T10:14:45;16.50;;;5.13;;
39656;SDS011;25337;51.478;7.510;2023-12-20T10:17:11;15.80;;;4.50;;
39656;SDS011;25337;51.478;7.510;2023-12-20T10:19:36;18.67;;;4.82;;
39656;SDS011;25337;51.478;7.510;2023-12-20T10:22:03;15.55;;;4.97;;
39656;SDS011;25337;51.478;7.510;2023-12-20T10:24:30;22.63;;;6.80;;
39656;SDS011;25337;51.478;7.510;2023-12-20T10:27:03;17.55;;;7.20;;
39656;SDS011;25337;51.478;7.510;2023-12-20T10:29:33;19.85;;;5.28;;
39656;SDS011;25337;51.478;7.510;2023-12-20T10:35:00;18.75;;;6.55;;
39656;SDS011;25337;51.478;7.510;2023-12-20T10:37:25;16.95;;;5.22;;
39656;SDS011;25337;51.478;7.510;2023-12-20T10:39:52;26.05;;;7.22;;
39656;SDS011;25337;51.478;7.510;2023-12-20T10:42:26;14.27;;;5.28;;
39656;SDS011;25337;51.478;7.510;2023-12-20T10:44:52;13.70;;;4.70;;
39656;SDS011;25337;51.478;7.510;2023-12-20T10:47:20;20.63;;;7.13;;
39656;SDS011;25337;51.478;7.510;2023-12-20T10:49:47;21.35;;;5.70;;
39656;SDS011;25337;51.478;7.510;2023-12-20T10:52:14;18.75;;;5.72;;
39656;SDS011;25337;51.478;7.510;2023-12-20T10:54:42;23.50;;;6.72;;
39656;SDS011;25337;51.478;7.510;2023-12-20T10:57:09;24.20;;;7.13;;
39656;SDS011;25337;51.478;7.510;2023-12-20T10:59:38;18.42;;;5.53;;
39656;SDS011;25337;51.478;7.510;2023-12-20T11:02:05;27.77;;;6.72;;
39656;SDS011;25337;51.478;7.510;2023-12-20T11:07:43;19.45;;;5.38;;
39656;SDS011;25337;51.478;7.510;2023-12-20T11:10:23;27.02;;;7.60;;
39656;SDS011;25337;51.478;7.510;2023-12-20T11:13:22;17.17;;;5.10;;
39656;SDS011;25337;51.478;7.510;2023-12-20T11:15:52;22.00;;;6.22;;
39656;SDS011;25337;51.478;7.510;2023-12-20T11:18:18;22.20;;;8.13;;
39656;SDS011;25337;51.478;7.510;2023-12-20T11:20:44;15.93;;;5.85;;
39656;SDS011;25337;51.478;7.510;2023-12-20T11:23:10;28.67;;;7.50;;
39656;SDS011;25337;51.478;7.510;2023-12-20T11:28:14;17.45;;;7.07;;
39656;SDS011;25337;51.478;7.510;2023-12-20T11:30:46;19.95;;;5.30;;
39656;SDS011;25337;51.478;7.510;2023-12-20T11:35:39;19.08;;;6.47;;
39656;SDS011;25337;51.478;7.510;2023-12-20T11:38:09;19.30;;;5.53;;
39656;SDS011;25337;51.478;7.510;2023-12-20T11:40:35;22.33;;;6.38;;
39656;SDS011;25337;51.478;7.510;2023-12-20T11:43:02;21.20;;;7.18;;
39656;SDS011;25337;51.478;7.510;2023-12-20T11:45:29;20.67;;;7.07;;
39656;SDS011;25337;51.478;7.510;2023-12-20T11:47:55;17.30;;;6.10;;
39656;SDS011;25337;51.478;7.510;2023-12-20T11:50:22;15.27;;;5.70;;
39656;SDS011;25337;51.478;7.510;2023-12-20T11:52:49;18.02;;;6.63;;
39656;SDS011;25337;51.478;7.510;2023-12-20T11:55:16;15.50;;;6.85;;
39656;SDS011;25337;51.478;7.510;2023-12-20T11:57:42;20.83;;;6.03;;
39656;SDS011;25337;51.478;7.510;2023-12-20T12:00:09;21.98;;;7.07;;
39656;SDS011;25337;51.478;7.510;2023-12-20T12:02:35;17.67;;;5.57;;
39656;SDS011;25337;51.478;7.510;2023-12-20T12:05:01;16.90;;;5.93;;
39656;SDS011;25337;51.478;7.510;2023-12-20T12:07:27;22.17;;;6.18;;
39656;SDS011;25337;51.478;7.510;2023-12-20T12:09:52;26.00;;;7.13;;
39656;SDS011;25337;51.478;7.510;2023-12-20T12:12:18;20.67;;;8.30;;
39656;SDS011;25337;51.478;7.510;2023-12-20T12:14:47;18.10;;;6.65;;
39656;SDS011;25337;51.478;7.510;2023-12-20T12:17:16;22.00;;;7.80;;
39656;SDS011;25337;51.478;7.510;2023-12-20T12:19:42;23.85;;;7.07;;
39656;SDS011;25337;51.478;7.510;2023-12-20T12:22:09;18.77;;;7.22;;
39656;SDS011;25337;51.478;7.510;2023-12-20T12:24:45;20.92;;;8.30;;
39656;SDS011;25337;51.478;7.510;2023-12-20T12:29:41;20.48;;;7.25;;
39656;SDS011;25337;51.478;7.510;2023-12-20T12:32:24;19.55;;;7.93;;
39656;SDS011;25337;51.478;7.510;2023-12-20T12:34:50;19.17;;;6.65;;
39656;SDS011;25337;51.478;7.510;2023-12-20T12:37:16;25.88;;;9.05;;
39656;SDS011;25337;51.478;7.510;2023-12-20T12:39:42;23.80;;;7.25;;
39656;SDS011;25337;51.478;7.510;2023-12-20T12:42:07;25.00;;;8.25;;
39656;SDS011;25337;51.478;7.510;2023-12-20T12:44:33;22.30;;;8.45;;
39656;SDS011;25337;51.478;7.510;2023-12-20T12:46:58;20.88;;;7.15;;
39656;SDS011;25337;51.478;7.510;2023-12-20T12:49:24;21.55;;;8.10;;
39656;SDS011;25337;51.478;7.510;2023-12-20T12:51:50;17.48;;;6.65;;
39656;SDS011;25337;51.478;7.510;2023-12-20T12:54:16;26.02;;;8.27;;
39656;SDS011;25337;51.478;7.510;2023-12-20T12:56:43;21.17;;;7.07;;
39656;SDS011;25337;51.478;7.510;2023-12-20T12:59:09;12.18;;;4.90;;
39656;SDS011;25337;51.478;7.510;2023-12-20T13:01:34;22.67;;;7.22;;
39656;SDS011;25337;51.478;7.510;2023-12-20T13:04:00;18.77;;;6.43;;
39656;SDS011;25337;51.478;7.510;2023-12-20T13:06:28;24.33;;;8.60;;
39656;SDS011;25337;51.478;7.510;2023-12-20T13:08:54;24.23;;;5.78;;
39656;SDS011;25337;51.478;7.510;2023-12-20T13:11:20;18.83;;;7.55;;
39656;SDS011;25337;51.478;7.510;2023-12-20T13:13:46;27.08;;;8.13;;
39656;SDS011;25337;51.478;7.510;2023-12-20T13:16:12;26.38;;;7.95;;
39656;SDS011;25337;51.478;7.510;2023-12-20T13:18:38;22.52;;;7.40;;
39656;SDS011;25337;51.478;7.510;2023-12-20T13:21:07;25.00;;;7.82;;
39656;SDS011;25337;51.478;7.510;2023-12-20T13:23:33;20.55;;;7.32;;
39656;SDS011;25337;51.478;7.510;2023-12-20T13:25:58;17.63;;;6.85;;
39656;SDS011;25337;51.478;7.510;2023-12-20T13:28:24;23.65;;;7.20;;
39656;SDS011;25337;51.478;7.510;2023-12-20T13:30:50;19.20;;;6.68;;
39656;SDS011;25337;51.478;7.510;2023-12-20T13:33:17;17.27;;;5.93;;
39656;SDS011;25337;51.478;7.510;2023-12-20T13:35:43;22.17;;;7.57;;
39656;SDS011;25337;51.478;7.510;2023-12-20T13:38:08;19.42;;;7.05;;
39656;SDS011;25337;51.478;7.510;2023-12-20T13:40:34;23.52;;;8.45;;
39656;SDS011;25337;51.478;7.510;2023-12-20T13:43:00;19.85;;;5.32;;
39656;SDS011;25337;51.478;7.510;2023-12-20T13:45:28;15.65;;;5.72;;
39656;SDS011;25337;51.478;7.510;2023-12-20T13:47:53;23.08;;;8.02;;
39656;SDS011;25337;51.478;7.510;2023-12-20T13:50:19;27.50;;;7.85;;
39656;SDS011;25337;51.478;7.510;2023-12-20T13:52:44;20.50;;;6.97;;
39656;SDS011;25337;51.478;7.510;2023-12-20T13:55:11;26.02;;;8.88;;
39656;SDS011;25337;51.478;7.510;2023-12-20T13:57:37;23.77;;;8.77;;
39656;SDS011;25337;51.478;7.510;2023-12-20T14:00:03;19.73;;;7.85;;
39656;SDS011;25337;51.478;7.510;2023-12-20T14:02:30;19.95;;;8.30;;
39656;SDS011;25337;51.478;7.510;2023-12-20T14:04:55;19.17;;;5.60;;
39656;SDS011;25337;51.478;7.510;2023-12-20T14:07:21;13.45;;;5.53;;
39656;SDS011;25337;51.478;7.510;2023-12-20T14:09:47;17.73;;;5.53;;
39656;SDS011;25337;51.478;7.510;2023-12-20T14:12:13;16.13;;;5.70;;
39656;SDS011;25337;51.478;7.510;2023-12-20T14:14:39;13.88;;;4.60;;
39656;SDS011;25337;51.478;7.510;2023-12-20T14:17:05;17.00;;;5.07;;
39656;SDS011;25337;51.478;7.510;2023-12-20T14:19:34;8.65;;;3.20;;
39656;SDS011;25337;51.478;7.510;2023-12-20T14:22:00;11.38;;;4.38;;
39656;SDS011;25337;51.478;7.510;2023-12-20T14:24:29;19.48;;;5.93;;
39656;SDS011;25337;51.478;7.510;2023-12-20T14:26:55;15.60;;;6.35;;
39656;SDS011;25337;51.478;7.510;2023-12-20T14:29:23;22.75;;;6.45;;
39656;SDS011;25337;51.478;7.510;2023-12-20T14:31:49;20.02;;;6.80;;
39656;SDS011;25337;51.478;7.510;2023-12-20T14:34:14;14.23;;;5.57;;
39656;SDS011;25337;51.478;7.510;2023-12-20T14:36:40;16.73;;;5.35;;
39656;SDS011;25337;51.478;7.510;2023-12-20T14:39:06;12.63;;;5.47;;
39656;SDS011;25337;51.478;7.510;2023-12-20T14:41:33;11.68;;;4.57;;
39656;SDS011;25337;51.478;7.510;2023-12-20T14:43:59;17.02;;;6.38;;
39656;SDS011;25337;51.478;7.510;2023-12-20T14:46:24;20.55;;;6.53;;
39656;SDS011;25337;51.478;7.510;2023-12-20T14:48:50;11.30;;;4.28;;
39656;SDS011;25337;51.478;7.510;2023-12-20T14:51:16;8.63;;;3.65;;
39656;SDS011;25337;51.478;7.510;2023-12-20T14:53:41;17.05;;;7.03;;
39656;SDS011;25337;51.478;7.510;2023-12-20T14:56:07;16.67;;;6.03;;
39656;SDS011;25337;51.478;7.510;2023-12-20T14:58:33;16.05;;;5.55;;
39656;SDS011;25337;51.478;7.510;2023-12-20T15:00:59;12.70;;;4.90;;
39656;SDS011;25337;51.478;7.510;2023-12-20T15:03:25;13.75;;;4.05;;
39656;SDS011;25337;51.478;7.510;2023-12-20T15:05:51;17.95;;;5.55;;
39656;SDS011;25337;51.478;7.510;2023-12-20T15:08:16;17.40;;;6.55;;
39656;SDS011;25337;51.478;7.510;2023-12-20T15:10:42;22.42;;;7.20;;